Epic Capri — 9HA2845 — position and weather

sailwx.info

Track history (hours):
 
Tides and Currents Weather Stations Pressure Air Temp Water Temp Dewpoint Dewpoint Depression Visibility Wind Speed Wind Dir Waves Ship Positions

Epic Capri

Last reported at 2014-Nov-28 11:22 UTC. Time now 2014-Nov-28 13:19 UTC.
Position N 38°40' W 026°60'.

Length 99 m; draft 5.5 m.

Type: Tanker. MMSI: 256325000.

Date/timePositionNaut miles runAvg speedWind from/ knotsBaromVisibWave heightAir tempDewpointWater temp
2014-Nov-28 11:22N 38°40' W 026°60'4 0.9
2014-Nov-28 07:16N 38°36' W 026°60'3 1.6
2014-Nov-28 05:29N 38°39' W 026°60'5 4.4
2014-Nov-28 04:22N 38°34' W 027°01'6 2.6
2014-Nov-28 02:08N 38°40' W 027°00'5 6.7
2014-Nov-28 01:19N 38°34' W 027°01'5 6.6
2014-Nov-28 00:30N 38°40' W 026°60'1 0.5
2014-Nov-27 22:13N 38°41' W 026°59'1 0.2
2014-Nov-27 18:17N 38°40' W 027°00'4 2.4
2014-Nov-27 16:28N 38°44' W 026°56'2 0.8
2014-Nov-27 13:32N 38°43' W 026°59'1 0.8
2014-Nov-27 12:33N 38°42' W 026°60'2 1.2
2014-Nov-27 11:15N 38°41' W 026°60'2 0.6
2014-Nov-27 08:27N 38°42' W 027°00'6 5.5
2014-Nov-27 07:16N 38°36' W 027°00'7 9.7
2014-Nov-27 06:31N 38°34' W 027°09'9 9.6
2014-Nov-27 05:33N 38°32' W 027°21'10 9.8
2014-Nov-27 04:33N 38°29' W 027°33'1010.3
2014-Nov-27 03:33N 38°29' W 027°46'1110.7
2014-Nov-27 02:33N 38°31' W 027°59'1010.2
2014-Nov-27 01:33N 38°33' W 028°12'1010.5
2014-Nov-27 00:33N 38°36' W 028°25'10 9.6
2014-Nov-26 23:33N 38°32' W 028°37'1 0.6
2014-Nov-26 22:33N 38°32' W 028°37'0 0.0
2014-Nov-26 21:33N 38°32' W 028°37'0 0.0
2014-Nov-26 20:33N 38°32' W 028°37'0 0.0
2014-Nov-26 19:33N 38°32' W 028°37'0 0.0
2014-Nov-26 18:33N 38°32' W 028°37'0 0.0
2014-Nov-26 17:30N 38°32' W 028°37'0 0.0
2014-Nov-26 16:33N 38°32' W 028°37'1 0.5
2014-Nov-26 15:34N 38°32' W 028°37'0 0.3
2014-Nov-26 14:31N 38°32' W 028°36'0 0.0
2014-Nov-26 13:31N 38°32' W 028°36'0 0.1
2014-Nov-26 12:25N 38°32' W 028°36'0 0.1
2014-Nov-26 11:31N 38°32' W 028°36'0 0.0
2014-Nov-26 10:33N 38°32' W 028°36'6 5.6
2014-Nov-26 09:27N 38°35' W 028°30'7 7.9
2014-Nov-26 08:33N 38°35' W 028°21'8 8.1
2014-Nov-26 07:33N 38°33' W 028°11'8 8.1
2014-Nov-26 06:33N 38°30' W 028°01'8 8.4
2014-Nov-26 05:33N 38°28' W 027°50'9 8.6
2014-Nov-26 04:33N 38°26' W 027°40'7 7.4
2014-Nov-26 03:33N 38°24' W 027°31'7 7.0
2014-Nov-26 02:33N 38°22' W 027°22'7 6.9
2014-Nov-26 01:33N 38°20' W 027°14'7 6.9
2014-Nov-26 00:33N 38°18' W 027°05'7 7.0
2014-Nov-25 23:33N 38°18' W 026°56'7 7.3
2014-Nov-25 22:33N 38°18' W 026°47'7 7.0
2014-Nov-25 21:33N 38°17' W 026°38'7 6.9
2014-Nov-25 20:33N 38°17' W 026°29'7 7.2
2014-Nov-25 19:33N 38°17' W 026°20'8 7.5
2014-Nov-25 18:33N 38°17' W 026°10'8 8.1
2014-Nov-25 17:33N 38°17' W 026°00'8 8.0
2014-Nov-25 16:33N 38°16' W 025°50'8 7.9
2014-Nov-25 15:33N 38°16' W 025°40'8 7.9
2014-Nov-25 14:33N 38°16' W 025°30'8 8.1
2014-Nov-25 13:34N 38°16' W 025°19'9 8.7
2014-Nov-25 12:33N 38°15' W 025°08'9 8.7
2014-Nov-25 11:33N 38°15' W 024°57'9 8.6
2014-Nov-25 10:33N 38°15' W 024°46'9 8.6
2014-Nov-25 09:33N 38°15' W 024°35'9 8.7
2014-Nov-25 08:33N 38°15' W 024°24'9 8.7
2014-Nov-25 07:33N 38°15' W 024°13'9 8.8
2014-Nov-25 06:33N 38°14' W 024°02'40 9.0
2014-Nov-25 02:06N 38°13' W 023°11'7 9.2
2014-Nov-25 01:18N 38°13' W 023°01'  
2014-Nov-21 20:04N 37°56' W 009°34'5 9.3
2014-Nov-21 19:33N 37°58' W 009°28'9 9.0
2014-Nov-21 18:33N 37°58' W 009°16'9 9.1
2014-Nov-21 17:33N 37°60' W 009°05'7 7.1
2014-Nov-21 16:33N 37°55' W 008°58'4 4.2
2014-Nov-21 15:33N 37°57' W 008°53'0 0.0
2014-Nov-21 14:33N 37°57' W 008°53'0 0.0
2014-Nov-21 13:33N 37°57' W 008°53'0 0.0
2014-Nov-21 12:33N 37°57' W 008°53'0 0.0
2014-Nov-21 11:33N 37°57' W 008°53'0 0.0
2014-Nov-21 10:33N 37°57' W 008°53'0 0.0
2014-Nov-21 09:33N 37°57' W 008°53'0 0.0
2014-Nov-21 08:33N 37°57' W 008°53'0 0.0
2014-Nov-21 07:33N 37°57' W 008°53'0 0.0
2014-Nov-21 06:33N 37°57' W 008°53'0 0.0
2014-Nov-21 05:30N 37°57' W 008°53'0 0.0
2014-Nov-21 04:33N 37°57' W 008°53'0 0.0
2014-Nov-21 03:33N 37°57' W 008°53'0 0.0
2014-Nov-21 02:30N 37°57' W 008°53'0 0.0
2014-Nov-21 01:33N 37°57' W 008°53'0 0.0
2014-Nov-21 00:33N 37°57' W 008°53'0 0.0
2014-Nov-20 23:33N 37°57' W 008°53'0 0.0
2014-Nov-20 22:33N 37°57' W 008°53'0 0.0
2014-Nov-20 21:33N 37°57' W 008°53'2 1.8
2014-Nov-20 20:33N 37°55' W 008°54'7 7.1
2014-Nov-20 19:33N 38°01' W 009°01'8 8.4
2014-Nov-20 18:33N 38°04' W 009°10'8 8.3
2014-Nov-20 17:32N 38°07' W 009°20'9 8.7
2014-Nov-20 16:33N 38°09' W 009°31'  
Track history (hours):
 
Tides and Currents Weather Stations Pressure Air Temp Water Temp Dewpoint Dewpoint Depression Visibility Wind Speed Wind Dir Waves Ship Positions

Epic Capri

Last reported at 2014-Nov-28 11:22 UTC. Time now 2014-Nov-28 13:19 UTC.
Position N 38°40' W 026°60'.

Length 99 m; draft 5.5 m.

Type: Tanker. MMSI: 256325000.

Date/timePositionNaut miles runAvg speedWind from/ knotsBaromVisibWave heightAir tempDewpointWater temp
2014-Nov-28 11:22N 38°40' W 026°60'4 0.9
2014-Nov-28 07:16N 38°36' W 026°60'3 1.6
2014-Nov-28 05:29N 38°39' W 026°60'5 4.4
2014-Nov-28 04:22N 38°34' W 027°01'6 2.6
2014-Nov-28 02:08N 38°40' W 027°00'5 6.7
2014-Nov-28 01:19N 38°34' W 027°01'5 6.6
2014-Nov-28 00:30N 38°40' W 026°60'1 0.5
2014-Nov-27 22:13N 38°41' W 026°59'1 0.2
2014-Nov-27 18:17N 38°40' W 027°00'4 2.4
2014-Nov-27 16:28N 38°44' W 026°56'2 0.8
2014-Nov-27 13:32N 38°43' W 026°59'1 0.8
2014-Nov-27 12:33N 38°42' W 026°60'2 1.2
2014-Nov-27 11:15N 38°41' W 026°60'2 0.6
2014-Nov-27 08:27N 38°42' W 027°00'6 5.5
2014-Nov-27 07:16N 38°36' W 027°00'7 9.7
2014-Nov-27 06:31N 38°34' W 027°09'9 9.6
2014-Nov-27 05:33N 38°32' W 027°21'10 9.8
2014-Nov-27 04:33N 38°29' W 027°33'1010.3
2014-Nov-27 03:33N 38°29' W 027°46'1110.7
2014-Nov-27 02:33N 38°31' W 027°59'1010.2
2014-Nov-27 01:33N 38°33' W 028°12'1010.5
2014-Nov-27 00:33N 38°36' W 028°25'10 9.6
2014-Nov-26 23:33N 38°32' W 028°37'1 0.6
2014-Nov-26 22:33N 38°32' W 028°37'0 0.0
2014-Nov-26 21:33N 38°32' W 028°37'0 0.0
2014-Nov-26 20:33N 38°32' W 028°37'0 0.0
2014-Nov-26 19:33N 38°32' W 028°37'0 0.0
2014-Nov-26 18:33N 38°32' W 028°37'0 0.0
2014-Nov-26 17:30N 38°32' W 028°37'0 0.0
2014-Nov-26 16:33N 38°32' W 028°37'1 0.5
2014-Nov-26 15:34N 38°32' W 028°37'0 0.3
2014-Nov-26 14:31N 38°32' W 028°36'0 0.0
2014-Nov-26 13:31N 38°32' W 028°36'0 0.1
2014-Nov-26 12:25N 38°32' W 028°36'0 0.1
2014-Nov-26 11:31N 38°32' W 028°36'0 0.0
2014-Nov-26 10:33N 38°32' W 028°36'6 5.6
2014-Nov-26 09:27N 38°35' W 028°30'7 7.9
2014-Nov-26 08:33N 38°35' W 028°21'8 8.1
2014-Nov-26 07:33N 38°33' W 028°11'8 8.1
2014-Nov-26 06:33N 38°30' W 028°01'8 8.4
2014-Nov-26 05:33N 38°28' W 027°50'9 8.6
2014-Nov-26 04:33N 38°26' W 027°40'7 7.4
2014-Nov-26 03:33N 38°24' W 027°31'7 7.0
2014-Nov-26 02:33N 38°22' W 027°22'7 6.9
2014-Nov-26 01:33N 38°20' W 027°14'7 6.9
2014-Nov-26 00:33N 38°18' W 027°05'7 7.0
2014-Nov-25 23:33N 38°18' W 026°56'7 7.3
2014-Nov-25 22:33N 38°18' W 026°47'7 7.0
2014-Nov-25 21:33N 38°17' W 026°38'7 6.9
2014-Nov-25 20:33N 38°17' W 026°29'7 7.2
2014-Nov-25 19:33N 38°17' W 026°20'8 7.5
2014-Nov-25 18:33N 38°17' W 026°10'8 8.1
2014-Nov-25 17:33N 38°17' W 026°00'8 8.0
2014-Nov-25 16:33N 38°16' W 025°50'8 7.9
2014-Nov-25 15:33N 38°16' W 025°40'8 7.9
2014-Nov-25 14:33N 38°16' W 025°30'8 8.1
2014-Nov-25 13:34N 38°16' W 025°19'9 8.7
2014-Nov-25 12:33N 38°15' W 025°08'9 8.7
2014-Nov-25 11:33N 38°15' W 024°57'9 8.6
2014-Nov-25 10:33N 38°15' W 024°46'9 8.6
2014-Nov-25 09:33N 38°15' W 024°35'9 8.7
2014-Nov-25 08:33N 38°15' W 024°24'9 8.7
2014-Nov-25 07:33N 38°15' W 024°13'9 8.8
2014-Nov-25 06:33N 38°14' W 024°02'40 9.0
2014-Nov-25 02:06N 38°13' W 023°11'7 9.2
2014-Nov-25 01:18N 38°13' W 023°01'  
2014-Nov-21 20:04N 37°56' W 009°34'5 9.3
2014-Nov-21 19:33N 37°58' W 009°28'9 9.0
2014-Nov-21 18:33N 37°58' W 009°16'9 9.1
2014-Nov-21 17:33N 37°60' W 009°05'7 7.1
2014-Nov-21 16:33N 37°55' W 008°58'4 4.2
2014-Nov-21 15:33N 37°57' W 008°53'0 0.0
2014-Nov-21 14:33N 37°57' W 008°53'0 0.0
2014-Nov-21 13:33N 37°57' W 008°53'0 0.0
2014-Nov-21 12:33N 37°57' W 008°53'0 0.0
2014-Nov-21 11:33N 37°57' W 008°53'0 0.0
2014-Nov-21 10:33N 37°57' W 008°53'0 0.0
2014-Nov-21 09:33N 37°57' W 008°53'0 0.0
2014-Nov-21 08:33N 37°57' W 008°53'0 0.0
2014-Nov-21 07:33N 37°57' W 008°53'0 0.0
2014-Nov-21 06:33N 37°57' W 008°53'0 0.0
2014-Nov-21 05:30N 37°57' W 008°53'0 0.0
2014-Nov-21 04:33N 37°57' W 008°53'0 0.0
2014-Nov-21 03:33N 37°57' W 008°53'0 0.0
2014-Nov-21 02:30N 37°57' W 008°53'0 0.0
2014-Nov-21 01:33N 37°57' W 008°53'0 0.0
2014-Nov-21 00:33N 37°57' W 008°53'0 0.0
2014-Nov-20 23:33N 37°57' W 008°53'0 0.0
2014-Nov-20 22:33N 37°57' W 008°53'0 0.0
2014-Nov-20 21:33N 37°57' W 008°53'2 1.8
2014-Nov-20 20:33N 37°55' W 008°54'7 7.1
2014-Nov-20 19:33N 38°01' W 009°01'8 8.4
2014-Nov-20 18:33N 38°04' W 009°10'8 8.3
2014-Nov-20 17:32N 38°07' W 009°20'9 8.7
2014-Nov-20 16:33N 38°09' W 009°31'  

Dump ship's entire track history